createdAt,value
2023-03-17T00:01:47.952Z,83.80
2023-03-17T00:04:16.042Z,84.00
2023-03-17T00:06:45.625Z,84.10
2023-03-17T00:09:14.839Z,84.50
2023-03-17T00:11:43.132Z,84.80
2023-03-17T00:14:11.223Z,85.00
2023-03-17T00:16:42.273Z,85.50
2023-03-17T00:19:16.587Z,85.50
2023-03-17T00:21:47.108Z,85.70
2023-03-17T00:24:15.894Z,85.90
2023-03-17T00:26:43.982Z,86.00
2023-03-17T00:29:11.986Z,86.10
2023-03-17T00:31:40.439Z,86.30
2023-03-17T00:34:12.131Z,86.50
2023-03-17T00:36:40.593Z,86.70
2023-03-17T00:39:17.424Z,86.90
2023-03-17T00:44:13.290Z,86.90
2023-03-17T00:46:42.182Z,87.10
2023-03-17T00:51:44.726Z,86.90
2023-03-17T00:54:15.521Z,87.10
2023-03-17T00:56:44.489Z,87.30
2023-03-17T00:59:20.508Z,87.60
2023-03-17T01:01:49.098Z,88.10
2023-03-17T01:04:17.100Z,88.40
2023-03-17T01:06:45.159Z,88.70
2023-03-17T01:09:16.497Z,88.90
2023-03-17T01:11:44.514Z,89.30
2023-03-17T01:14:13.486Z,89.40
2023-03-17T01:16:41.717Z,89.90
2023-03-17T01:19:11.971Z,90.00
2023-03-17T01:21:40.631Z,90.20
2023-03-17T01:24:09.579Z,90.40
2023-03-17T01:26:40.135Z,90.60
2023-03-17T01:29:08.396Z,90.80
2023-03-17T01:31:36.462Z,91.10
2023-03-17T01:34:06.082Z,91.10
2023-03-17T01:36:34.185Z,91.00
2023-03-17T01:39:03.326Z,90.80
2023-03-17T01:41:34.464Z,91.10
2023-03-17T01:44:03.866Z,91.40
2023-03-17T01:46:33.996Z,91.50
2023-03-17T01:49:19.476Z,91.60
2023-03-17T01:51:57.496Z,91.80
2023-03-17T01:54:31.648Z,92.00
2023-03-17T01:57:03.730Z,92.10
2023-03-17T01:59:37.662Z,92.30
2023-03-17T02:02:10.664Z,92.40
2023-03-17T02:04:40.176Z,92.50
2023-03-17T02:07:08.415Z,92.70
2023-03-17T02:09:36.901Z,93.00
2023-03-17T02:12:07.459Z,93.20
2023-03-17T02:14:37.415Z,93.40
2023-03-17T02:17:05.372Z,93.50
2023-03-17T02:19:34.089Z,93.60
2023-03-17T02:22:03.668Z,93.80
2023-03-17T02:24:35.742Z,94.00
2023-03-17T02:27:08.014Z,94.10
2023-03-17T02:29:37.845Z,94.40
2023-03-17T02:32:07.113Z,94.40
2023-03-17T02:34:37.259Z,94.60
2023-03-17T02:37:07.755Z,94.90
2023-03-17T02:39:36.200Z,95.20
2023-03-17T02:42:04.517Z,95.40
2023-03-17T02:44:32.955Z,95.60
2023-03-17T02:47:00.902Z,95.90
2023-03-17T02:49:29.620Z,96.20
2023-03-17T02:51:57.471Z,96.30
2023-03-17T02:54:26.711Z,96.50
2023-03-17T02:56:54.619Z,96.70
2023-03-17T02:59:22.529Z,96.90
2023-03-17T03:01:50.682Z,97.10
2023-03-17T03:04:19.162Z,97.30
2023-03-17T03:06:47.644Z,97.50
2023-03-17T03:09:17.755Z,97.60
2023-03-17T03:11:47.690Z,97.90
2023-03-17T03:14:16.414Z,98.20
2023-03-17T03:16:44.646Z,98.30
2023-03-17T03:19:12.840Z,98.50
2023-03-17T03:21:40.958Z,98.60
2023-03-17T03:24:09.626Z,98.90
2023-03-17T03:26:37.567Z,99.20
2023-03-17T03:29:07.474Z,99.50
2023-03-17T03:31:35.467Z,99.80
2023-03-17T03:34:03.339Z,99.90
2023-03-17T03:36:31.230Z,99.90
2023-03-17T03:39:00.937Z,99.90
2023-03-17T03:41:28.817Z,99.90
2023-03-17T03:43:56.905Z,99.90
2023-03-17T03:46:26.923Z,99.90
2023-03-17T03:48:55.157Z,99.90
2023-03-17T03:51:22.995Z,99.90
2023-03-17T03:53:50.904Z,99.90
2023-03-17T03:56:18.788Z,99.90
2023-03-17T03:58:46.799Z,99.90
2023-03-17T04:01:14.747Z,99.90
2023-03-17T04:03:46.957Z,99.90
2023-03-17T04:06:14.894Z,99.90
2023-03-17T04:08:42.790Z,99.90
2023-03-17T04:11:10.670Z,99.90
2023-03-17T04:13:38.803Z,99.90
2023-03-17T04:16:07.543Z,99.90
2023-03-17T04:18:35.578Z,99.90
2023-03-17T04:21:05.020Z,99.90
2023-03-17T04:23:33.277Z,99.90
2023-03-17T04:26:01.433Z,99.90
2023-03-17T04:28:29.236Z,99.90
2023-03-17T04:30:57.277Z,99.90
2023-03-17T04:33:25.243Z,99.90
2023-03-17T04:35:53.208Z,99.90
2023-03-17T04:38:22.493Z,99.90
2023-03-17T04:40:51.784Z,99.90
2023-03-17T04:43:19.719Z,99.90
2023-03-17T04:45:47.607Z,99.90
2023-03-17T04:48:15.505Z,99.90
2023-03-17T04:50:44.261Z,99.90
2023-03-17T04:53:12.578Z,99.90
2023-03-17T04:55:42.102Z,99.90
2023-03-17T04:58:11.790Z,99.90
2023-03-17T05:00:41.482Z,99.90
2023-03-17T05:03:24.056Z,99.90
2023-03-17T05:05:54.415Z,99.90
2023-03-17T05:08:22.355Z,99.90
2023-03-17T05:10:51.829Z,99.90
2023-03-17T05:13:19.723Z,99.90
2023-03-17T05:15:48.094Z,99.90
2023-03-17T05:18:16.456Z,99.90
2023-03-17T05:20:44.567Z,99.90
2023-03-17T05:23:12.991Z,99.90
2023-03-17T05:25:41.703Z,99.90
2023-03-17T05:28:11.507Z,99.90
2023-03-17T05:30:39.557Z,99.90
2023-03-17T05:33:07.933Z,99.90
2023-03-17T05:35:35.972Z,99.90
2023-03-17T05:38:03.888Z,99.90
2023-03-17T05:40:32.600Z,99.90
2023-03-17T05:43:00.760Z,99.90
2023-03-17T05:45:30.409Z,99.90
2023-03-17T05:47:58.342Z,99.90
2023-03-17T05:50:27.001Z,99.90
2023-03-17T05:52:55.099Z,99.90
2023-03-17T05:55:23.124Z,99.90
2023-03-17T05:57:51.336Z,99.90
2023-03-17T06:00:21.362Z,99.90
2023-03-17T06:02:50.621Z,99.90
2023-03-17T06:05:18.810Z,99.90
2023-03-17T06:07:54.682Z,99.90
2023-03-17T06:10:23.894Z,99.90
2023-03-17T06:12:52.074Z,99.90
2023-03-17T06:15:20.502Z,99.90
2023-03-17T06:17:50.202Z,99.90
2023-03-17T06:20:18.503Z,99.90
2023-03-17T06:23:02.738Z,99.90
2023-03-17T06:25:32.665Z,99.90
2023-03-17T06:28:02.517Z,99.90
2023-03-17T06:30:30.942Z,99.90
2023-03-17T06:33:00.412Z,99.90
2023-03-17T06:35:28.669Z,99.90
2023-03-17T06:37:57.004Z,99.90
2023-03-17T06:40:25.902Z,99.90
2023-03-17T06:42:53.851Z,99.90
2023-03-17T06:45:21.778Z,99.90
2023-03-17T06:47:49.735Z,99.90
2023-03-17T06:50:19.540Z,99.90
2023-03-17T06:52:47.722Z,99.90
2023-03-17T06:55:16.134Z,99.90
2023-03-17T06:57:44.194Z,99.90
2023-03-17T07:00:14.124Z,99.90
2023-03-17T07:02:42.291Z,99.90
2023-03-17T07:05:10.937Z,99.90
2023-03-17T07:07:40.216Z,99.90
2023-03-17T07:10:10.320Z,99.90
2023-03-17T07:12:38.330Z,99.90
2023-03-17T07:15:07.127Z,99.90
2023-03-17T07:17:35.096Z,99.90
2023-03-17T07:20:03.033Z,99.90
2023-03-17T07:22:31.046Z,99.90
2023-03-17T07:25:00.357Z,99.90
2023-03-17T07:27:28.307Z,99.90
2023-03-17T07:29:56.708Z,99.90
2023-03-17T07:32:24.641Z,99.90
2023-03-17T07:34:53.093Z,99.90
2023-03-17T07:37:21.576Z,99.90
2023-03-17T07:39:49.582Z,99.90
2023-03-17T07:42:19.132Z,99.90
2023-03-17T07:44:46.993Z,99.90
2023-03-17T07:47:15.747Z,99.90
2023-03-17T07:49:43.853Z,99.90
2023-03-17T07:52:12.757Z,99.90
2023-03-17T07:54:42.962Z,99.90
2023-03-17T07:57:11.521Z,99.90
2023-03-17T07:59:41.677Z,99.90
2023-03-17T08:02:15.705Z,99.90
2023-03-17T08:04:44.083Z,99.90
2023-03-17T08:07:12.818Z,99.90
2023-03-17T08:09:41.852Z,99.90
2023-03-17T08:12:10.583Z,99.90
2023-03-17T08:14:39.967Z,99.90
2023-03-17T08:17:08.383Z,99.90
2023-03-17T08:19:36.364Z,99.90
2023-03-17T08:22:04.615Z,99.80
2023-03-17T08:24:32.736Z,99.10
2023-03-17T08:27:01.099Z,98.30
2023-03-17T08:29:30.027Z,97.40
2023-03-17T08:31:59.376Z,95.80
2023-03-17T08:34:27.339Z,93.50
2023-03-17T08:36:55.311Z,91.50
2023-03-17T08:39:23.529Z,86.70
2023-03-17T08:41:51.940Z,80.30
2023-03-17T08:44:20.750Z,75.00
2023-03-17T08:46:49.470Z,69.50
2023-03-17T08:49:18.969Z,65.50
2023-03-17T08:51:47.480Z,63.10
2023-03-17T08:54:15.819Z,60.80
2023-03-17T08:56:43.905Z,59.00
2023-03-17T08:59:12.404Z,57.40
2023-03-17T09:01:41.940Z,56.20
2023-03-17T09:04:09.871Z,55.60
2023-03-17T09:06:44.109Z,55.00
2023-03-17T09:09:17.385Z,54.10
2023-03-17T09:11:45.347Z,52.40
2023-03-17T09:14:13.301Z,50.90
2023-03-17T09:16:41.339Z,49.10
2023-03-17T09:19:09.351Z,47.70
2023-03-17T09:21:37.755Z,45.60
2023-03-17T09:24:07.239Z,43.40
2023-03-17T09:26:35.144Z,43.00
2023-03-17T09:29:04.665Z,40.80
2023-03-17T09:31:32.942Z,39.50
2023-03-17T09:34:00.958Z,39.00
2023-03-17T09:36:29.126Z,38.20
2023-03-17T09:38:56.977Z,38.20
2023-03-17T09:41:43.901Z,36.50
2023-03-17T09:44:24.399Z,35.40
2023-03-17T09:47:02.528Z,35.10
2023-03-17T09:49:39.179Z,34.00
2023-03-17T09:52:13.324Z,33.90
2023-03-17T09:54:41.526Z,33.30
2023-03-17T09:57:17.965Z,32.90
2023-03-17T09:59:47.964Z,32.20
2023-03-17T10:02:22.693Z,31.60
2023-03-17T10:04:50.904Z,31.40
2023-03-17T10:07:24.626Z,32.20
2023-03-17T10:10:03.030Z,31.30
2023-03-17T10:12:46.046Z,30.90
2023-03-17T10:15:21.969Z,30.40
2023-03-17T10:17:52.050Z,30.40
2023-03-17T10:20:26.241Z,30.60
2023-03-17T10:22:58.130Z,31.70
2023-03-17T10:25:29.985Z,30.60
2023-03-17T10:28:03.387Z,30.70
2023-03-17T10:30:34.449Z,30.50
2023-03-17T10:33:07.391Z,30.20
2023-03-17T10:35:36.657Z,29.80
2023-03-17T10:38:16.345Z,29.80
2023-03-17T10:40:48.293Z,29.60
2023-03-17T10:43:22.601Z,29.60
2023-03-17T10:46:00.723Z,29.50
2023-03-17T10:48:29.611Z,29.40
2023-03-17T10:50:59.572Z,29.60
2023-03-17T10:53:31.341Z,29.20
2023-03-17T10:56:02.416Z,29.60
2023-03-17T10:58:44.851Z,29.80
2023-03-17T11:01:20.084Z,29.20
2023-03-17T11:03:49.191Z,29.40
2023-03-17T11:06:19.110Z,29.20
2023-03-17T11:08:50.134Z,29.20
2023-03-17T11:11:26.210Z,29.30
2023-03-17T11:14:03.093Z,28.50
2023-03-17T11:16:34.019Z,29.10
2023-03-17T11:19:03.461Z,29.50
2023-03-17T11:21:34.559Z,29.70
2023-03-17T11:24:08.191Z,29.90
2023-03-17T11:26:50.508Z,30.00
2023-03-17T11:29:27.632Z,30.90
2023-03-17T11:32:01.403Z,31.10
2023-03-17T11:34:40.037Z,30.80
2023-03-17T11:37:22.651Z,30.80
2023-03-17T11:39:57.404Z,30.80
2023-03-17T11:42:30.757Z,31.60
2023-03-17T11:45:18.050Z,31.50
2023-03-17T11:48:01.165Z,31.70
2023-03-17T11:50:34.914Z,31.90
2023-03-17T11:53:22.216Z,32.50
2023-03-17T11:55:55.784Z,32.80
2023-03-17T11:58:30.991Z,33.10
2023-03-17T12:01:02.957Z,33.10
2023-03-17T12:03:38.785Z,33.20
2023-03-17T12:06:13.770Z,33.10
2023-03-17T12:08:46.482Z,32.30
2023-03-17T12:11:17.290Z,32.40
2023-03-17T12:13:47.657Z,31.90
2023-03-17T12:16:21.748Z,31.00
2023-03-17T12:18:57.910Z,30.80
2023-03-17T12:21:34.159Z,30.70
2023-03-17T12:24:09.999Z,30.50
2023-03-17T12:26:40.571Z,30.60
2023-03-17T12:29:14.962Z,30.70
2023-03-17T12:31:48.034Z,30.40
2023-03-17T12:34:21.479Z,30.70
2023-03-17T12:36:50.032Z,30.90
2023-03-17T12:39:21.983Z,31.50
2023-03-17T12:42:21.842Z,31.80
2023-03-17T12:45:11.409Z,32.10
2023-03-17T12:47:52.500Z,32.20
2023-03-17T12:50:50.145Z,32.70
2023-03-17T12:53:27.502Z,32.00
2023-03-17T12:55:59.167Z,31.60
2023-03-17T12:58:36.380Z,31.80
2023-03-17T13:01:13.043Z,32.60
2023-03-17T13:03:57.349Z,32.50
2023-03-17T13:06:26.040Z,32.80
2023-03-17T13:08:54.287Z,32.90
2023-03-17T13:11:29.514Z,33.30
2023-03-17T13:14:08.505Z,34.20
2023-03-17T13:16:39.313Z,34.40
2023-03-17T13:19:23.490Z,34.40
2023-03-17T13:21:54.160Z,34.40
2023-03-17T13:24:35.976Z,34.80
2023-03-17T13:27:04.636Z,34.50
2023-03-17T13:29:47.249Z,34.60
2023-03-17T13:32:35.447Z,35.40
2023-03-17T13:35:22.130Z,35.30
2023-03-17T13:38:34.388Z,35.60
2023-03-17T13:41:41.902Z,36.00
2023-03-17T13:44:34.477Z,36.10
2023-03-17T13:47:28.551Z,36.10
2023-03-17T13:50:02.290Z,37.10
2023-03-17T13:52:35.550Z,37.30
2023-03-17T13:55:25.577Z,37.50
2023-03-17T13:58:16.427Z,37.40
2023-03-17T14:00:47.365Z,37.80
2023-03-17T14:03:20.831Z,37.40
2023-03-17T14:05:51.815Z,37.80
2023-03-17T14:08:28.371Z,37.60
2023-03-17T14:10:57.911Z,38.00
2023-03-17T14:13:29.310Z,37.70
2023-03-17T14:16:03.851Z,38.40
2023-03-17T14:18:34.613Z,37.80
2023-03-17T14:21:10.537Z,37.30
2023-03-17T14:23:39.470Z,37.20
2023-03-17T14:26:12.198Z,36.50
2023-03-17T14:28:41.452Z,36.70
2023-03-17T14:31:19.840Z,36.40
2023-03-17T14:33:47.793Z,36.80
2023-03-17T14:36:15.983Z,37.50
2023-03-17T14:38:49.013Z,37.90
2023-03-17T14:41:22.635Z,37.90
2023-03-17T14:43:54.392Z,38.70
2023-03-17T14:46:24.113Z,39.20
2023-03-17T14:48:57.730Z,39.50
2023-03-17T14:51:28.940Z,40.30
2023-03-17T14:54:01.160Z,41.00
2023-03-17T14:56:36.012Z,41.10
2023-03-17T14:59:17.855Z,41.50
2023-03-17T15:01:47.721Z,41.70
2023-03-17T15:04:19.241Z,41.90
2023-03-17T15:06:49.820Z,42.40
2023-03-17T15:09:20.356Z,42.10
2023-03-17T15:11:49.005Z,42.00
2023-03-17T15:14:24.195Z,41.90
2023-03-17T15:16:53.756Z,41.90
2023-03-17T15:19:27.601Z,42.10
2023-03-17T15:22:00.193Z,42.40
2023-03-17T15:24:38.166Z,43.00
2023-03-17T15:27:07.657Z,43.30
2023-03-17T15:29:36.841Z,43.30
2023-03-17T15:32:13.210Z,43.70
2023-03-17T15:34:41.465Z,44.10
2023-03-17T15:37:20.517Z,44.30
2023-03-17T15:39:49.372Z,44.20
2023-03-17T15:42:21.547Z,44.70
2023-03-17T15:44:50.862Z,45.60
2023-03-17T15:47:20.978Z,45.30
2023-03-17T15:49:51.325Z,45.80
2023-03-17T15:52:24.859Z,46.00
2023-03-17T15:54:53.836Z,46.10
2023-03-17T15:57:21.841Z,46.60
2023-03-17T15:59:51.191Z,47.50
2023-03-17T16:02:28.650Z,47.50
2023-03-17T16:04:57.141Z,47.60
2023-03-17T16:07:25.611Z,48.20
2023-03-17T16:09:53.517Z,48.70
2023-03-17T16:12:21.457Z,48.80
2023-03-17T16:14:51.517Z,49.10
2023-03-17T16:17:26.739Z,49.30
2023-03-17T16:19:55.854Z,49.50
2023-03-17T16:22:39.901Z,49.80
2023-03-17T16:25:24.800Z,50.00
2023-03-17T16:27:54.090Z,50.30
2023-03-17T16:30:25.939Z,50.50
2023-03-17T16:32:55.218Z,50.80
2023-03-17T16:35:25.872Z,51.30
2023-03-17T16:37:55.079Z,50.90
2023-03-17T16:40:27.202Z,50.80
2023-03-17T16:42:55.854Z,50.60
2023-03-17T16:45:28.890Z,50.70
2023-03-17T16:47:57.610Z,50.60
2023-03-17T16:50:27.645Z,50.70
2023-03-17T16:52:55.564Z,50.90
2023-03-17T16:55:24.842Z,51.40
2023-03-17T16:57:54.695Z,51.60
2023-03-17T17:00:26.109Z,52.00
2023-03-17T17:02:54.662Z,52.40
2023-03-17T17:05:24.594Z,53.20
2023-03-17T17:07:56.066Z,54.00
2023-03-17T17:10:25.674Z,54.40
2023-03-17T17:12:54.401Z,54.70
2023-03-17T17:15:23.472Z,55.00
2023-03-17T17:17:55.884Z,55.50
2023-03-17T17:20:28.616Z,55.10
2023-03-17T17:22:56.932Z,55.50
2023-03-17T17:25:25.688Z,55.80
2023-03-17T17:27:53.845Z,56.00
2023-03-17T17:30:24.420Z,56.30
2023-03-17T17:32:53.845Z,56.60
2023-03-17T17:35:22.340Z,56.90
2023-03-17T17:37:50.294Z,56.90
2023-03-17T17:40:20.939Z,57.10
2023-03-17T17:42:48.857Z,57.40
2023-03-17T17:45:17.667Z,57.60
2023-03-17T17:47:45.778Z,57.60
2023-03-17T17:50:20.126Z,58.20
2023-03-17T17:52:48.099Z,58.60
2023-03-17T17:55:16.226Z,59.00
2023-03-17T17:57:44.194Z,58.90
2023-03-17T18:00:17.031Z,59.20
2023-03-17T18:02:45.313Z,58.70
2023-03-17T18:05:14.649Z,58.70
2023-03-17T18:07:42.584Z,58.90
2023-03-17T18:10:18.691Z,59.80
2023-03-17T18:12:46.671Z,60.20
2023-03-17T18:15:14.719Z,60.70
2023-03-17T18:17:43.221Z,60.90
2023-03-17T18:20:15.401Z,61.40
2023-03-17T18:22:43.432Z,61.70
2023-03-17T18:25:14.312Z,62.30
2023-03-17T18:27:43.468Z,63.30
2023-03-17T18:30:14.669Z,63.40
2023-03-17T18:32:44.045Z,64.00
2023-03-17T18:35:17.553Z,65.00
2023-03-17T18:37:45.856Z,64.90
2023-03-17T18:40:18.095Z,64.80
2023-03-17T18:42:47.090Z,65.30
2023-03-17T18:45:15.888Z,65.60
2023-03-17T18:47:43.773Z,65.70
2023-03-17T18:50:14.520Z,66.40
2023-03-17T18:52:45.191Z,66.60
2023-03-17T18:55:15.109Z,67.10
2023-03-17T18:57:44.873Z,67.50
2023-03-17T19:00:16.300Z,68.10
2023-03-17T19:02:44.603Z,68.20
2023-03-17T19:05:12.921Z,69.10
2023-03-17T19:07:41.130Z,69.40
2023-03-17T19:10:12.551Z,69.90
2023-03-17T19:12:41.060Z,70.30
2023-03-17T19:15:10.714Z,70.40
2023-03-17T19:17:38.991Z,70.70
2023-03-17T19:20:08.727Z,71.50
2023-03-17T19:22:36.573Z,71.40
2023-03-17T19:25:04.869Z,71.20
2023-03-17T19:27:34.223Z,71.50
2023-03-17T19:30:02.157Z,72.30
2023-03-17T19:32:30.077Z,72.80
2023-03-17T19:34:58.035Z,73.10
2023-03-17T19:37:26.002Z,73.20
2023-03-17T19:39:53.945Z,74.50
2023-03-17T19:42:22.096Z,74.00
2023-03-17T19:44:51.423Z,74.50
2023-03-17T19:47:19.452Z,74.80
2023-03-17T19:49:47.520Z,75.20
2023-03-17T19:52:15.502Z,75.30
2023-03-17T19:54:45.795Z,76.00
2023-03-17T19:57:14.473Z,76.20
2023-03-17T19:59:42.513Z,76.40
2023-03-17T20:02:14.467Z,76.80
2023-03-17T20:04:42.819Z,77.10
2023-03-17T20:07:11.341Z,77.20
2023-03-17T20:09:39.413Z,77.40
2023-03-17T20:12:07.705Z,78.00
2023-03-17T20:14:35.916Z,78.30
2023-03-17T20:17:03.858Z,78.40
2023-03-17T20:19:33.185Z,78.50
2023-03-17T20:22:01.124Z,79.10
2023-03-17T20:24:29.994Z,79.50
2023-03-17T20:26:59.369Z,79.80
2023-03-17T20:29:28.089Z,80.10
2023-03-17T20:31:56.374Z,80.20
2023-03-17T20:34:24.741Z,80.90
2023-03-17T20:36:53.963Z,81.50
2023-03-17T20:39:21.915Z,81.80
2023-03-17T20:41:50.835Z,82.00
2023-03-17T20:44:19.295Z,82.20
2023-03-17T20:46:47.635Z,82.50
2023-03-17T20:49:17.186Z,82.70
2023-03-17T20:51:46.310Z,82.90
2023-03-17T20:54:15.772Z,83.50
2023-03-17T20:56:44.192Z,83.70
2023-03-17T20:59:13.263Z,84.00
2023-03-17T21:01:42.650Z,84.40
2023-03-17T21:04:15.615Z,84.40
2023-03-17T21:06:43.700Z,84.30
2023-03-17T21:09:11.963Z,84.60
2023-03-17T21:11:41.589Z,85.00
2023-03-17T21:14:09.518Z,85.30
2023-03-17T21:16:38.745Z,85.20
2023-03-17T21:19:09.516Z,85.90
2023-03-17T21:21:37.633Z,86.40
2023-03-17T21:24:08.300Z,86.90
2023-03-17T21:26:36.377Z,87.60
2023-03-17T21:29:05.699Z,87.60
2023-03-17T21:31:33.940Z,87.90
2023-03-17T21:34:01.913Z,88.40
2023-03-17T21:36:29.862Z,88.60
2023-03-17T21:38:57.827Z,89.70
2023-03-17T21:41:33.172Z,89.40
2023-03-17T21:44:01.440Z,89.80
2023-03-17T21:46:31.687Z,90.00
2023-03-17T21:49:00.460Z,90.20
2023-03-17T21:51:28.514Z,90.30
2023-03-17T21:53:56.693Z,90.30
2023-03-17T21:56:25.282Z,90.60
2023-03-17T21:58:53.197Z,90.80
2023-03-17T22:01:21.746Z,91.00
2023-03-17T22:03:51.961Z,91.10
2023-03-17T22:06:21.283Z,91.20
2023-03-17T22:08:50.535Z,91.40
2023-03-17T22:11:20.107Z,91.40
2023-03-17T22:13:48.764Z,91.50
2023-03-17T22:16:18.209Z,91.70
2023-03-17T22:18:46.244Z,91.90
2023-03-17T22:21:15.548Z,92.20
2023-03-17T22:23:44.433Z,92.30
2023-03-17T22:26:14.233Z,92.40
2023-03-17T22:28:43.106Z,92.60
2023-03-17T22:31:14.863Z,92.80
2023-03-17T22:33:42.874Z,93.00
2023-03-17T22:36:11.151Z,93.30
2023-03-17T22:38:41.340Z,93.50
2023-03-17T22:41:12.342Z,93.60
2023-03-17T22:43:41.597Z,93.90
2023-03-17T22:46:09.891Z,94.10
2023-03-17T22:48:38.095Z,94.30
2023-03-17T22:51:09.827Z,94.30
2023-03-17T22:53:38.521Z,94.50
2023-03-17T22:56:10.920Z,94.50
2023-03-17T22:58:39.192Z,94.60
2023-03-17T23:01:07.993Z,94.80
2023-03-17T23:03:36.307Z,95.10
2023-03-17T23:06:05.968Z,95.40
2023-03-17T23:08:36.080Z,95.60
2023-03-17T23:11:08.738Z,95.70
2023-03-17T23:13:38.235Z,96.00
2023-03-17T23:16:07.886Z,96.20
2023-03-17T23:18:35.760Z,96.40
2023-03-17T23:21:04.706Z,96.30
2023-03-17T23:23:32.929Z,96.40
2023-03-17T23:26:00.948Z,96.50
2023-03-17T23:28:29.057Z,96.80
2023-03-17T23:30:58.704Z,96.70
2023-03-17T23:33:26.676Z,96.90
2023-03-17T23:35:55.501Z,97.10
2023-03-17T23:38:23.446Z,97.30
2023-03-17T23:40:51.662Z,97.30
2023-03-17T23:43:19.669Z,97.40
2023-03-17T23:45:47.767Z,97.40
2023-03-17T23:48:17.115Z,97.70
2023-03-17T23:50:45.377Z,97.90
2023-03-17T23:53:13.414Z,98.10
2023-03-17T23:55:41.354Z,98.30
2023-03-17T23:58:09.236Z,98.50
